ilmateenistus.ee keskkonnaagentuur.ee
EETN Tallinna lennuväli
FTEO31 EETN 222300
TAF EETN 222330Z 2300/2324 22010KT 9999 SCT020 PROB30 TEMPO 2300/2304
    4000 BR BECMG 2308/2310 6000 RA BKN014 TEMPO 2310/2318 16015G25KT
    TEMPO 2317/2324 2000 RA BR BKN005 OVC012=

METAR EETN 230020Z 21009KT 9999 FEW045 03/01 Q1004 =
Tallinna lennuväli
EEKA Kärdla lennuväli
METAR EEKA 222350Z NIL=
Kärdla lennuväli
EEKE Kuressaare lennuväli
METAR EEKE 222350Z AUTO 26004KT 210V310 9999NDV FEW033 07/03 Q1007=
Kuressaare lennuväli
EEPU Pärnu lennuväli
METAR EEPU 222350Z NIL=
Pärnu lennuväli
EETU Tartu lennuväli
FCEO32 EETN 222000 AAA
TAF AMD EETU 230000Z 2221/2303 CNL=

METAR EETU 230020Z 23008KT CAVOK 04/02 Q1006=
Tartu lennuväli
EEEI Ämari lennuväli
METAR EEEI 222350Z 20007KT 9999 SCT047 04/01 Q1005=
Ämari lennuväli